createdAt,value
2023-04-15T00:02:15.416Z,24.70
2023-04-15T00:04:47.490Z,25.00
2023-04-15T00:07:16.666Z,24.90
2023-04-15T00:09:45.431Z,25.60
2023-04-15T00:12:14.295Z,26.30
2023-04-15T00:14:43.823Z,27.90
2023-04-15T00:17:12.754Z,25.10
2023-04-15T00:19:41.556Z,24.50
2023-04-15T00:22:10.450Z,26.60
2023-04-15T00:24:39.417Z,28.80
2023-04-15T00:27:08.040Z,26.30
2023-04-15T00:29:36.826Z,28.60
2023-04-15T00:32:05.624Z,26.70
2023-04-15T00:34:35.010Z,27.40
2023-04-15T00:37:03.841Z,31.30
2023-04-15T00:39:32.604Z,28.00
2023-04-15T00:42:01.678Z,27.20
2023-04-15T00:44:30.631Z,26.60
2023-04-15T00:47:00.965Z,27.90
2023-04-15T00:49:30.405Z,24.90
2023-04-15T00:51:59.041Z,24.90
2023-04-15T00:54:27.732Z,26.60
2023-04-15T00:56:57.298Z,27.00
2023-04-15T00:59:26.018Z,27.80
2023-04-15T01:01:54.858Z,29.10
2023-04-15T01:04:24.457Z,27.60
2023-04-15T01:06:53.455Z,28.00
2023-04-15T01:09:22.527Z,28.20
2023-04-15T01:11:53.101Z,27.60
2023-04-15T01:14:22.174Z,29.90
2023-04-15T01:16:51.074Z,29.20
2023-04-15T01:19:20.690Z,29.90
2023-04-15T01:21:49.718Z,27.90
2023-04-15T01:24:19.312Z,25.80
2023-04-15T01:26:50.454Z,26.20
2023-04-15T01:29:19.728Z,26.80
2023-04-15T01:31:53.230Z,27.60
2023-04-15T01:34:22.630Z,26.40
2023-04-15T01:36:55.579Z,24.40
2023-04-15T01:39:24.403Z,24.70
2023-04-15T01:41:52.853Z,24.60
2023-04-15T01:44:22.313Z,25.90
2023-04-15T01:46:50.972Z,24.70
2023-04-15T01:49:19.842Z,24.10
2023-04-15T01:51:48.824Z,23.80
2023-04-15T01:54:17.600Z,24.70
2023-04-15T01:56:46.284Z,23.00
2023-04-15T01:59:14.933Z,21.10
2023-04-15T02:01:44.142Z,21.20
2023-04-15T02:04:17.696Z,21.70
2023-04-15T02:06:47.160Z,21.70
2023-04-15T02:09:15.942Z,21.10
2023-04-15T02:11:48.127Z,19.30
2023-04-15T02:14:16.547Z,20.40
2023-04-15T02:16:45.021Z,19.00
2023-04-15T02:19:14.409Z,18.60
2023-04-15T02:21:42.790Z,18.30
2023-04-15T02:24:12.596Z,19.60
2023-04-15T02:26:43.922Z,17.70
2023-04-15T02:29:12.500Z,18.70
2023-04-15T02:31:42.623Z,17.80
2023-04-15T02:34:12.025Z,10.00
2023-04-15T02:36:41.264Z,6.40
2023-04-15T02:39:10.073Z,5.30
2023-04-15T02:41:39.117Z,4.90
2023-04-15T02:44:11.450Z,5.10
2023-04-15T02:46:41.917Z,5.10
2023-04-15T02:49:11.265Z,3.20
2023-04-15T02:51:39.991Z,3.40
2023-04-15T02:54:09.349Z,3.70
2023-04-15T02:56:38.236Z,3.30
2023-04-15T02:59:06.948Z,2.90
2023-04-15T03:01:35.931Z,3.10
2023-04-15T03:04:05.129Z,3.00
2023-04-15T03:06:33.631Z,2.90
2023-04-15T03:09:04.229Z,2.70
2023-04-15T03:11:40.852Z,2.60
2023-04-15T03:14:11.919Z,3.20
2023-04-15T03:16:43.263Z,2.50
2023-04-15T03:19:11.903Z,2.10
2023-04-15T03:21:41.020Z,2.60
2023-04-15T03:24:10.412Z,2.50
2023-04-15T03:26:38.962Z,2.00
2023-04-15T03:29:13.445Z,1.40
2023-04-15T03:31:42.652Z,1.90
2023-04-15T03:34:11.236Z,2.50
2023-04-15T03:36:40.605Z,2.10
2023-04-15T03:39:09.170Z,2.40
2023-04-15T03:41:37.600Z,2.20
2023-04-15T03:44:06.815Z,7.00
2023-04-15T03:46:35.297Z,5.20
2023-04-15T03:49:04.275Z,4.90
2023-04-15T03:51:33.569Z,4.40
2023-04-15T03:54:02.578Z,3.20
2023-04-15T03:56:31.297Z,3.60
2023-04-15T03:59:01.202Z,4.20
2023-04-15T04:01:30.147Z,3.20
2023-04-15T04:03:58.766Z,2.30
2023-04-15T04:06:28.042Z,2.00
2023-04-15T04:08:57.131Z,2.10
2023-04-15T04:11:25.920Z,1.80
2023-04-15T04:13:54.946Z,3.10
2023-04-15T04:16:23.584Z,3.00
2023-04-15T04:18:52.009Z,2.20
2023-04-15T04:21:22.020Z,2.60
2023-04-15T04:23:51.014Z,2.40
2023-04-15T04:26:20.072Z,2.50
2023-04-15T04:28:49.004Z,1.80
2023-04-15T04:31:17.519Z,2.40
2023-04-15T04:33:46.754Z,2.40
2023-04-15T04:36:16.149Z,1.60
2023-04-15T04:38:44.625Z,2.70
2023-04-15T04:41:13.504Z,5.20
2023-04-15T04:43:43.061Z,7.00
2023-04-15T04:46:12.345Z,5.00
2023-04-15T04:48:41.297Z,4.50
2023-04-15T04:51:10.343Z,8.10
2023-04-15T04:53:38.839Z,4.30
2023-04-15T04:56:07.426Z,5.50
2023-04-15T04:58:36.718Z,9.60
2023-04-15T05:01:05.269Z,3.60
2023-04-15T05:03:33.948Z,3.20
2023-04-15T05:06:06.513Z,2.90
2023-04-15T05:08:35.114Z,3.10
2023-04-15T05:11:04.321Z,2.40
2023-04-15T05:13:33.272Z,4.00
2023-04-15T05:16:02.305Z,2.10
2023-04-15T05:18:31.308Z,1.70
2023-04-15T05:21:00.752Z,2.00
2023-04-15T05:23:29.651Z,1.90
2023-04-15T05:25:58.713Z,7.30
2023-04-15T05:28:27.751Z,29.20
2023-04-15T05:30:56.655Z,14.20
2023-04-15T05:33:25.894Z,36.60
2023-04-15T05:35:54.747Z,11.80
2023-04-15T05:38:23.655Z,22.30
2023-04-15T05:40:52.516Z,4.40
2023-04-15T05:43:21.393Z,3.30
2023-04-15T05:45:49.817Z,2.60
2023-04-15T05:48:18.815Z,3.50
2023-04-15T05:50:48.039Z,1.80
2023-04-15T05:53:16.742Z,1.80
2023-04-15T05:55:45.726Z,2.90
2023-04-15T05:58:14.534Z,2.80
2023-04-15T06:00:44.203Z,3.60
2023-04-15T06:03:13.617Z,3.00
2023-04-15T06:05:43.150Z,4.40
2023-04-15T06:08:11.599Z,1.80
2023-04-15T06:10:40.533Z,2.30
2023-04-15T06:13:09.744Z,3.70
2023-04-15T06:15:38.356Z,3.50
2023-04-15T06:18:06.914Z,2.90
2023-04-15T06:20:37.101Z,2.80
2023-04-15T06:25:34.191Z,5.20
2023-04-15T06:28:03.489Z,2.70
2023-04-15T06:30:32.026Z,3.60
2023-04-15T06:33:00.720Z,3.30
2023-04-15T06:35:29.459Z,3.00
2023-04-15T06:37:58.144Z,2.70
2023-04-15T06:40:27.204Z,6.00
2023-04-15T06:42:56.240Z,4.10
2023-04-15T06:45:24.791Z,1.50
2023-04-15T06:47:53.467Z,5.50
2023-04-15T06:50:22.500Z,4.10
2023-04-15T06:52:51.186Z,4.00
2023-04-15T06:55:20.051Z,5.00
2023-04-15T06:57:49.270Z,3.80
2023-04-15T07:00:18.125Z,3.90
2023-04-15T07:02:47.084Z,3.80
2023-04-15T07:05:16.232Z,17.10
2023-04-15T07:07:45.690Z,5.30
2023-04-15T07:10:16.287Z,11.80
2023-04-15T07:15:14.146Z,8.80
2023-04-15T07:17:43.641Z,11.30
2023-04-15T07:20:13.329Z,12.00
2023-04-15T07:22:41.833Z,18.10
2023-04-15T07:25:10.418Z,16.90
2023-04-15T07:27:39.305Z,11.00
2023-04-15T07:30:08.313Z,3.80
2023-04-15T07:32:37.316Z,8.00
2023-04-15T07:35:06.486Z,11.00
2023-04-15T07:37:37.596Z,5.60
2023-04-15T07:40:07.856Z,3.50
2023-04-15T07:42:38.061Z,4.00
2023-04-15T07:45:09.983Z,9.50
2023-04-15T07:47:42.368Z,6.10
2023-04-15T07:50:15.108Z,6.20
2023-04-15T07:52:49.907Z,3.70
2023-04-15T07:55:28.332Z,4.00
2023-04-15T07:57:57.601Z,3.60
2023-04-15T08:00:27.187Z,3.10
2023-04-15T08:02:58.036Z,4.60
2023-04-15T08:05:26.713Z,3.00
2023-04-15T08:07:55.330Z,3.40
2023-04-15T08:10:24.096Z,3.00
2023-04-15T08:12:54.697Z,4.10
2023-04-15T08:15:23.730Z,3.20
2023-04-15T08:17:52.570Z,2.70
2023-04-15T08:20:21.175Z,2.90
2023-04-15T08:22:52.273Z,2.90
2023-04-15T08:25:21.012Z,2.40
2023-04-15T08:27:49.556Z,2.50
2023-04-15T08:30:18.419Z,2.50
2023-04-15T08:32:47.637Z,2.10
2023-04-15T08:35:16.813Z,2.70
2023-04-15T08:37:46.349Z,4.70
2023-04-15T08:40:15.064Z,3.20
2023-04-15T08:42:49.305Z,2.60
2023-04-15T08:45:18.838Z,2.40
2023-04-15T08:47:50.105Z,4.50
2023-04-15T08:50:20.658Z,3.70
2023-04-15T08:52:49.871Z,2.10
2023-04-15T08:55:18.475Z,1.40
2023-04-15T08:57:47.528Z,1.40
2023-04-15T09:00:16.678Z,2.80
2023-04-15T09:02:45.526Z,3.00
2023-04-15T09:05:14.567Z,4.90
2023-04-15T09:07:44.944Z,3.80
2023-04-15T09:10:13.479Z,2.50
2023-04-15T09:12:42.981Z,2.80
2023-04-15T09:15:16.698Z,5.20
2023-04-15T09:17:46.715Z,8.50
2023-04-15T09:20:18.909Z,6.30
2023-04-15T09:22:50.247Z,4.40
2023-04-15T09:25:22.979Z,12.50
2023-04-15T09:27:54.127Z,27.20
2023-04-15T09:30:23.082Z,29.90
2023-04-15T09:33:00.148Z,33.00
2023-04-15T09:35:29.290Z,22.60
2023-04-15T09:38:06.917Z,8.10
2023-04-15T09:40:41.434Z,5.60
2023-04-15T09:43:13.342Z,6.20
2023-04-15T09:45:50.204Z,5.70
2023-04-15T09:48:22.043Z,4.10
2023-04-15T09:50:51.436Z,5.90
2023-04-15T09:53:21.911Z,2.90
2023-04-15T09:55:59.194Z,0.90
2023-04-15T09:58:30.008Z,4.40
2023-04-15T10:01:01.061Z,4.70
2023-04-15T10:03:32.120Z,2.10
2023-04-15T10:06:02.709Z,1.60
2023-04-15T10:08:35.075Z,2.90
2023-04-15T10:11:05.468Z,3.30
2023-04-15T10:13:36.658Z,5.40
2023-04-15T10:16:14.945Z,3.20
2023-04-15T10:18:46.489Z,2.70
2023-04-15T10:21:18.993Z,2.80
2023-04-15T10:23:48.179Z,2.70
2023-04-15T10:26:18.282Z,3.20
2023-04-15T10:31:18.727Z,2.00
2023-04-15T10:33:48.990Z,2.10
2023-04-15T10:36:20.559Z,1.60
2023-04-15T10:38:49.305Z,2.90
2023-04-15T10:41:30.051Z,7.90
2023-04-15T10:44:05.026Z,6.40
2023-04-15T10:46:43.944Z,1.80
2023-04-15T10:49:17.922Z,2.80
2023-04-15T10:51:54.970Z,2.80
2023-04-15T10:54:27.219Z,2.40
2023-04-15T10:57:03.204Z,1.60
2023-04-15T10:59:33.302Z,1.60
2023-04-15T11:02:04.467Z,2.20
2023-04-15T11:04:52.393Z,1.90
2023-04-15T11:07:54.807Z,2.90
2023-04-15T11:10:26.287Z,4.90
2023-04-15T11:12:58.995Z,4.70
2023-04-15T11:15:42.046Z,4.70
2023-04-15T11:18:13.987Z,4.50
2023-04-15T11:20:48.046Z,2.80
2023-04-15T11:23:38.786Z,4.50
2023-04-15T11:26:12.433Z,2.90
2023-04-15T11:28:43.029Z,1.80
2023-04-15T11:31:15.281Z,3.90
2023-04-15T11:34:03.497Z,5.30
2023-04-15T11:36:32.441Z,4.80
2023-04-15T11:39:01.113Z,11.20
2023-04-15T11:41:30.763Z,8.30
2023-04-15T11:43:59.604Z,8.40
2023-04-15T11:46:34.856Z,4.30
2023-04-15T11:49:05.104Z,5.90
2023-04-15T11:51:50.951Z,7.40
2023-04-15T11:54:22.794Z,7.80
2023-04-15T11:56:53.174Z,4.10
2023-04-15T11:59:21.641Z,7.70
2023-04-15T12:01:52.693Z,3.80
2023-04-15T12:04:25.376Z,6.40
2023-04-15T12:06:54.749Z,8.90
2023-04-15T12:09:23.194Z,4.60
2023-04-15T12:11:56.130Z,4.60
2023-04-15T12:14:32.410Z,7.20
2023-04-15T12:17:05.541Z,5.10
2023-04-15T12:19:42.191Z,8.30
2023-04-15T12:22:16.095Z,6.60
2023-04-15T12:24:48.162Z,4.60
2023-04-15T12:27:17.954Z,8.10
2023-04-15T12:29:46.815Z,9.40
2023-04-15T12:32:17.279Z,11.30
2023-04-15T12:34:52.020Z,7.30
2023-04-15T12:37:20.891Z,11.10
2023-04-15T12:39:50.691Z,8.50
2023-04-15T12:42:20.352Z,11.40
2023-04-15T12:44:49.170Z,8.00
2023-04-15T12:47:17.826Z,9.20
2023-04-15T12:49:47.316Z,13.10
2023-04-15T12:52:16.860Z,10.30
2023-04-15T12:54:45.371Z,14.50
2023-04-15T12:57:14.408Z,15.80
2023-04-15T12:59:43.506Z,4.90
2023-04-15T13:02:12.055Z,7.40
2023-04-15T13:04:41.400Z,4.00
2023-04-15T13:07:10.916Z,4.00
2023-04-15T13:09:39.918Z,7.20
2023-04-15T13:12:08.781Z,9.80
2023-04-15T13:14:38.187Z,6.10
2023-04-15T13:17:10.598Z,3.70
2023-04-15T13:19:39.740Z,5.40
2023-04-15T13:22:09.107Z,4.40
2023-04-15T13:24:38.038Z,4.50
2023-04-15T13:27:08.637Z,4.30
2023-04-15T13:32:06.354Z,5.00
2023-04-15T13:34:35.716Z,6.50
2023-04-15T13:37:10.734Z,23.80
2023-04-15T13:39:39.382Z,7.30
2023-04-15T13:42:07.929Z,11.50
2023-04-15T13:44:36.863Z,8.20
2023-04-15T13:47:06.355Z,4.00
2023-04-15T13:49:35.031Z,5.20
2023-04-15T13:52:03.765Z,3.60
2023-04-15T13:54:37.628Z,4.90
2023-04-15T13:57:07.362Z,2.50
2023-04-15T13:59:36.626Z,4.00
2023-04-15T14:02:05.328Z,1.90
2023-04-15T14:04:34.635Z,2.40
2023-04-15T14:07:05.283Z,4.20
2023-04-15T14:09:36.135Z,4.50
2023-04-15T14:12:06.008Z,2.60
2023-04-15T14:14:35.028Z,1.80
2023-04-15T14:17:05.154Z,1.80
2023-04-15T14:19:35.359Z,2.30
2023-04-15T14:22:03.991Z,3.30
2023-04-15T14:24:32.946Z,2.00
2023-04-15T14:27:02.530Z,2.00
2023-04-15T14:29:31.453Z,1.30
2023-04-15T14:32:11.592Z,1.30
2023-04-15T14:34:41.682Z,1.60
2023-04-15T14:37:10.403Z,1.80
2023-04-15T14:39:38.959Z,1.60
2023-04-15T14:42:07.815Z,1.50
2023-04-15T14:44:36.674Z,1.90
2023-04-15T14:47:06.439Z,1.80
2023-04-15T14:49:35.312Z,2.10
2023-04-15T14:52:04.450Z,3.80
2023-04-15T14:54:33.432Z,2.50
2023-04-15T14:57:02.435Z,4.10
2023-04-15T14:59:31.378Z,2.00
2023-04-15T15:02:00.361Z,1.30
2023-04-15T15:04:29.972Z,2.10
2023-04-15T15:06:58.848Z,1.30
2023-04-15T15:09:27.631Z,1.80
2023-04-15T15:11:57.646Z,3.00
2023-04-15T15:16:55.598Z,4.30
2023-04-15T15:19:25.214Z,8.20
2023-04-15T15:21:54.064Z,2.60
2023-04-15T15:24:22.537Z,1.40
2023-04-15T15:26:51.740Z,1.50
2023-04-15T15:29:20.602Z,1.60
2023-04-15T15:31:49.524Z,1.90
2023-04-15T15:34:18.778Z,1.60
2023-04-15T15:36:47.600Z,2.10
2023-04-15T15:39:16.453Z,1.50
2023-04-15T15:41:45.389Z,1.00
2023-04-15T15:44:13.979Z,1.50
2023-04-15T15:46:42.527Z,5.30
2023-04-15T15:49:11.886Z,3.70
2023-04-15T15:51:40.750Z,4.70
2023-04-15T15:54:09.195Z,3.70
2023-04-15T15:56:39.758Z,2.90
2023-04-15T15:59:08.451Z,6.00
2023-04-15T16:01:36.946Z,4.10
2023-04-15T16:04:06.150Z,5.30
2023-04-15T16:06:35.561Z,4.10
2023-04-15T16:09:04.531Z,4.90
2023-04-15T16:11:33.554Z,4.00
2023-04-15T16:14:02.485Z,3.20
2023-04-15T16:16:31.392Z,4.00
2023-04-15T16:19:00.506Z,8.80
2023-04-15T16:21:29.711Z,12.20
2023-04-15T16:23:58.406Z,7.90
2023-04-15T16:26:27.235Z,12.60
2023-04-15T16:28:55.765Z,20.90
2023-04-15T16:31:24.786Z,15.20
2023-04-15T16:33:53.907Z,10.50
2023-04-15T16:36:22.691Z,7.10
2023-04-15T16:38:51.578Z,6.50
2023-04-15T16:41:21.237Z,10.30
2023-04-15T16:43:50.380Z,43.10
2023-04-15T16:46:19.216Z,19.10
2023-04-15T16:48:47.834Z,17.50
2023-04-15T16:51:16.522Z,18.10
2023-04-15T16:53:45.906Z,12.20
2023-04-15T16:56:14.773Z,11.20
2023-04-15T16:58:43.796Z,11.90
2023-04-15T17:01:12.551Z,11.90
2023-04-15T17:03:41.384Z,15.30
2023-04-15T17:06:10.584Z,14.40
2023-04-15T17:08:40.441Z,16.50
2023-04-15T17:11:09.054Z,12.40
2023-04-15T17:13:37.958Z,14.20
2023-04-15T17:16:06.843Z,16.10
2023-04-15T17:18:35.620Z,14.20
2023-04-15T17:21:05.969Z,13.10
2023-04-15T17:23:34.876Z,14.50
2023-04-15T17:26:03.797Z,13.00
2023-04-15T17:28:32.859Z,14.10
2023-04-15T17:31:02.160Z,13.80
2023-04-15T17:34:00.153Z,19.10
2023-04-15T17:36:20.611Z,15.50
2023-04-15T17:38:49.826Z,18.80
2023-04-15T17:41:18.285Z,11.70
2023-04-15T17:43:47.079Z,10.20
2023-04-15T17:46:15.955Z,10.90
2023-04-15T17:48:44.456Z,9.80
2023-04-15T17:51:13.716Z,11.30
2023-04-15T17:53:42.386Z,11.90
2023-04-15T17:56:11.328Z,20.10
2023-04-15T17:58:39.844Z,12.70
2023-04-15T18:01:08.692Z,18.90
2023-04-15T18:03:37.751Z,17.50
2023-04-15T18:06:06.744Z,13.60
2023-04-15T18:08:36.513Z,23.60
2023-04-15T18:11:05.617Z,27.40
2023-04-15T18:13:34.710Z,48.90
2023-04-15T18:16:03.718Z,67.30
2023-04-15T18:18:34.086Z,60.10
2023-04-15T18:21:03.765Z,109.50
2023-04-15T18:23:33.090Z,51.10
2023-04-15T18:26:01.837Z,38.40
2023-04-15T18:28:31.753Z,22.40
2023-04-15T18:31:01.815Z,22.80
2023-04-15T18:33:30.548Z,16.20
2023-04-15T18:35:59.475Z,14.90
2023-04-15T18:38:29.130Z,25.50
2023-04-15T18:40:57.617Z,15.70
2023-04-15T18:43:26.430Z,27.00
2023-04-15T18:45:55.270Z,19.40
2023-04-15T18:48:24.163Z,10.50
2023-04-15T18:50:54.759Z,10.10
2023-04-15T18:53:24.018Z,9.20
2023-04-15T18:55:52.794Z,10.50
2023-04-15T18:58:21.835Z,8.60
2023-04-15T19:00:51.002Z,7.70
2023-04-15T19:03:25.012Z,9.50
2023-04-15T19:05:54.015Z,14.40
2023-04-15T19:08:22.457Z,33.10
2023-04-15T19:10:52.122Z,38.50
2023-04-15T19:13:22.834Z,13.20
2023-04-15T19:15:52.131Z,10.20
2023-04-15T19:18:21.498Z,14.10
2023-04-15T19:20:53.111Z,11.50
2023-04-15T19:23:23.111Z,10.50
2023-04-15T19:25:51.732Z,10.20
2023-04-15T19:28:20.502Z,10.90
2023-04-15T19:30:49.955Z,9.40
2023-04-15T19:33:18.950Z,11.80
2023-04-15T19:35:50.340Z,10.30
2023-04-15T19:38:19.279Z,12.80
2023-04-15T19:40:48.422Z,12.90
2023-04-15T19:43:17.334Z,9.60
2023-04-15T19:45:47.197Z,12.50
2023-04-15T19:48:16.522Z,15.70
2023-04-15T19:50:45.576Z,12.30
2023-04-15T19:53:14.781Z,12.20
2023-04-15T19:55:43.714Z,11.20
2023-04-15T19:58:12.343Z,11.30
2023-04-15T20:00:41.631Z,10.30
2023-04-15T20:03:11.311Z,15.20
2023-04-15T20:05:39.905Z,9.30
2023-04-15T20:08:09.232Z,10.10
2023-04-15T20:10:38.121Z,9.40
2023-04-15T20:13:06.767Z,9.80
2023-04-15T20:15:36.037Z,10.90
2023-04-15T20:18:04.636Z,10.30
2023-04-15T20:20:35.044Z,9.30
2023-04-15T20:23:03.972Z,10.20
2023-04-15T20:25:32.694Z,9.30
2023-04-15T20:28:01.373Z,11.70
2023-04-15T20:30:31.102Z,10.60
2023-04-15T20:33:00.882Z,10.90
2023-04-15T20:35:31.177Z,12.00
2023-04-15T20:38:00.433Z,11.70
2023-04-15T20:40:29.739Z,11.40
2023-04-15T20:42:58.492Z,10.90
2023-04-15T20:45:27.125Z,12.40
2023-04-15T20:47:56.529Z,19.30
2023-04-15T20:50:24.939Z,15.20
2023-04-15T20:52:53.671Z,10.50
2023-04-15T20:55:22.503Z,12.00
2023-04-15T20:57:51.108Z,13.80
2023-04-15T21:00:19.989Z,11.30
2023-04-15T21:02:49.033Z,12.10
2023-04-15T21:05:18.081Z,12.60
2023-04-15T21:07:46.930Z,10.40
2023-04-15T21:10:15.753Z,8.30
2023-04-15T21:12:44.808Z,7.40
2023-04-15T21:15:13.814Z,8.80
2023-04-15T21:17:42.727Z,8.50
2023-04-15T21:20:11.945Z,9.30
2023-04-15T21:22:41.100Z,10.30
2023-04-15T21:25:10.065Z,9.20
2023-04-15T21:27:38.729Z,11.70
2023-04-15T21:30:08.291Z,12.90
2023-04-15T21:32:37.019Z,10.20
2023-04-15T21:35:06.477Z,11.00
2023-04-15T21:37:35.281Z,10.50
2023-04-15T21:40:05.163Z,10.90
2023-04-15T21:42:33.674Z,14.30
2023-04-15T21:45:02.681Z,11.00
2023-04-15T21:47:31.938Z,11.10
2023-04-15T21:50:20.761Z,14.00
2023-04-15T21:52:49.677Z,11.40
2023-04-15T21:55:18.417Z,10.20
2023-04-15T21:57:47.516Z,9.00
2023-04-15T22:00:16.725Z,6.30
2023-04-15T22:02:45.413Z,7.20
2023-04-15T22:05:14.363Z,8.90
2023-04-15T22:07:43.610Z,9.00
2023-04-15T22:10:12.159Z,10.40
2023-04-15T22:12:42.490Z,11.70
2023-04-15T22:15:11.510Z,11.80
2023-04-15T22:17:39.998Z,13.20
2023-04-15T22:20:09.571Z,14.40
2023-04-15T22:22:44.304Z,17.80
2023-04-15T22:25:13.817Z,12.50
2023-04-15T22:27:42.955Z,8.20
2023-04-15T22:30:11.940Z,7.70
2023-04-15T22:32:40.886Z,10.50
2023-04-15T22:35:09.838Z,14.60
2023-04-15T22:37:38.292Z,11.80
2023-04-15T22:40:07.687Z,13.20
2023-04-15T22:42:36.603Z,11.90
2023-04-15T22:45:05.755Z,18.70
2023-04-15T22:47:34.578Z,9.70
2023-04-15T22:50:03.868Z,7.50
2023-04-15T22:52:32.443Z,9.20
2023-04-15T22:55:01.521Z,7.40
2023-04-15T22:57:30.352Z,7.80
2023-04-15T22:59:58.842Z,8.60
2023-04-15T23:02:28.101Z,7.90
2023-04-15T23:04:58.056Z,11.30
2023-04-15T23:07:26.531Z,10.50
2023-04-15T23:09:55.402Z,13.30
2023-04-15T23:12:24.297Z,17.70
2023-04-15T23:14:52.717Z,14.80
2023-04-15T23:17:21.926Z,12.90
2023-04-15T23:19:50.758Z,11.90
2023-04-15T23:22:19.300Z,12.00
2023-04-15T23:24:48.328Z,11.10
2023-04-15T23:27:19.248Z,10.70
2023-04-15T23:29:47.693Z,10.10
2023-04-15T23:32:16.662Z,10.00
2023-04-15T23:34:45.588Z,8.80
2023-04-15T23:37:15.853Z,8.90
2023-04-15T23:39:44.961Z,8.20
2023-04-15T23:42:13.873Z,8.20
2023-04-15T23:44:42.298Z,8.40
2023-04-15T23:47:11.347Z,8.40
2023-04-15T23:49:41.218Z,9.00
2023-04-15T23:52:09.702Z,8.00
2023-04-15T23:54:38.307Z,8.70
2023-04-15T23:57:07.428Z,8.30
2023-04-15T23:59:36.484Z,8.30
